Time;durP1;ratioP1;P1;durP2;ratioP2;P2;SDS_P1;SDS_P2;PMS_P1;PMS_P2;Temp;Humidity;BMP_temperature;BMP_pressure;BME280_temperature;BME280_humidity;BME280_pressure;Samples;Min_cycle;Max_cycle;Signal;HPM_P1;HPM_P2
2022/10/26 00:00:11;;;;;;;;;;;;;;;17.68;73.16;101103.94;1297692;22;605;-76
2022/10/26 00:01:02;;;;;;;;;;;;;;;17.67;72.43;101107.63;1297610;22;624;-75
2022/10/26 00:01:52;;;;;;;;;;;;;;;17.68;72.72;101097.69;1297642;22;621;-75
2022/10/26 00:02:43;;;;;;;;;;;;;;;17.68;72.48;101103.94;1297637;22;651;-75
2022/10/26 00:03:33;;;;;;;;;;;;;;;17.68;73.05;101095.84;1297697;22;640;-75
2022/10/26 00:04:23;;;;;;;;;;;;;;;17.68;72.53;101092.31;1297595;22;668;-75
2022/10/26 00:05:14;;;;;;;;;;;;;;;17.69;72.70;101091.31;1297068;22;703;-76
2022/10/26 00:06:04;;;;;;;;;;;;;;;17.68;72.06;101089.59;1296276;22;625;-75
2022/10/26 00:06:55;;;;;;;;;;;;;;;17.69;72.36;101091.31;1296948;22;616;-76
2022/10/26 00:07:45;;;;;;;;;;;;;;;17.69;72.08;101094.84;1297565;22;827;-75
2022/10/26 00:08:36;;;;;;;;;;;;;;;17.68;72.98;101092.31;1297330;22;691;-75
2022/10/26 00:09:26;;;;;;;;;;;;;;;17.64;73.10;101089.03;1297221;22;664;-75
2022/10/26 00:10:16;;;;;;;;;;;;;;;17.64;73.05;101089.03;1296855;22;675;-75
2022/10/26 00:11:07;;;;;;;;;;;;;;;17.67;72.42;101090.59;1297598;22;625;-76
2022/10/26 00:11:57;;;;;;;;;;;;;;;17.67;72.56;101086.06;1297597;22;597;-75
2022/10/26 00:12:48;;;;;;;;;;;;;;;17.66;72.77;101087.03;1297683;22;687;-76
2022/10/26 00:13:38;;;;;;;;;;;;;;;17.67;72.29;101083.38;1297501;22;644;-75
2022/10/26 00:14:29;;;;;;;;;;;;;;;17.68;72.11;101082.38;1297512;22;664;-75
2022/10/26 00:15:19;;;;;;;;;;;;;;;17.68;72.72;101087.75;1297614;22;621;-76
2022/10/26 00:16:10;;;;;;;;;;;;;;;17.68;72.45;101081.53;1297712;22;617;-76
2022/10/26 00:17:00;;;;;;;;;;;;;;;17.66;71.87;101083.50;1297486;22;608;-76
2022/10/26 00:17:51;;;;;;;;;;;;;;;17.65;72.34;101084.50;1297247;22;706;-75
2022/10/26 00:18:41;;;;;;;;;;;;;;;17.64;71.91;101080.94;1296498;22;628;-75
2022/10/26 00:19:32;;;;;;;;;;;;;;;17.66;72.92;101083.50;1296895;22;683;-74
2022/10/26 00:20:22;;;;;;;;;;;;;;;17.67;71.83;101079.81;1297446;22;653;-76
2022/10/26 00:21:13;;;;;;;;;;;;;;;17.65;72.54;101079.09;1297648;22;637;-76
2022/10/26 00:22:03;;;;;;;;;;;;;;;17.64;72.13;101077.41;1297364;22;710;-76
2022/10/26 00:22:53;;;;;;;;;;;;;;;17.63;71.91;101079.19;1298494;22;636;-75
2022/10/26 00:23:44;;;;;;;;;;;;;;;17.64;71.90;101072.84;1297626;22;617;-76
2022/10/26 00:24:34;;;;;;;;;;;;;;;17.65;72.66;101081.78;1297715;22;613;-76
2022/10/26 00:25:25;;;;;;;;;;;;;;;17.63;72.48;101072.97;1297690;22;648;-76
2022/10/26 00:26:15;;;;;;;;;;;;;;;17.62;72.85;101069.41;1297519;22;762;-76
2022/10/26 00:27:06;;;;;;;;;;;;;;;17.61;72.01;101070.41;1297509;22;638;-76
2022/10/26 00:27:56;;;;;;;;;;;;;;;17.62;71.86;101072.09;1297325;22;625;-75
2022/10/26 00:28:47;;;;;;;;;;;;;;;17.64;72.39;101069.31;1297548;22;641;-75
2022/10/26 00:29:38;;;;;;;;;;;;;;;17.64;72.30;101069.31;1297090;22;656;-76
2022/10/26 00:30:28;;;;;;;;;;;;;;;17.63;72.63;101073.81;1297377;22;600;-75
2022/10/26 00:31:18;;;;;;;;;;;;;;;17.63;72.87;101071.13;1297636;22;650;-75
2022/10/26 00:32:09;;;;;;;;;;;;;;;17.61;72.23;101069.56;1297461;22;639;-76
2022/10/26 00:32:59;;;;;;;;;;;;;;;17.62;72.27;101072.09;1297663;22;652;-75
2022/10/26 00:33:50;;;;;;;;;;;;;;;17.61;72.27;101070.41;1297690;22;649;-75
2022/10/26 00:34:40;;;;;;;;;;;;;;;17.63;72.52;101070.25;1297508;22;625;-75
2022/10/26 00:35:31;;;;;;;;;;;;;;;17.62;72.65;101064.03;1297641;22;683;-75
2022/10/26 00:36:21;;;;;;;;;;;;;;;17.62;72.80;101063.16;1297573;22;638;-76
2022/10/26 00:37:11;;;;;;;;;;;;;;;17.61;72.04;101065.00;1297603;22;656;-75
2022/10/26 00:38:02;;;;;;;;;;;;;;;17.62;72.63;101060.47;1297365;22;671;-75
2022/10/26 00:38:52;;;;;;;;;;;;;;;17.61;72.66;101065.00;1297390;22;620;-75
2022/10/26 00:39:43;;;;;;;;;;;;;;;17.59;71.94;101061.59;1297703;22;613;-75
2022/10/26 00:40:33;;;;;;;;;;;;;;;17.61;72.54;101061.47;1297445;22;646;-75
2022/10/26 00:41:24;;;;;;;;;;;;;;;17.60;72.19;101055.22;1297336;22;699;-75
2022/10/26 00:42:14;;;;;;;;;;;;;;;17.60;72.23;101057.06;1296196;22;660;-75
2022/10/26 00:43:05;;;;;;;;;;;;;;;17.61;71.88;101053.38;1296814;22;675;-75
2022/10/26 00:43:55;;;;;;;;;;;;;;;17.59;71.83;101050.81;1296792;22;632;-75
2022/10/26 00:44:45;;;;;;;;;;;;;;;17.59;72.25;101047.28;1297496;22;644;-75
2022/10/26 00:45:36;;;;;;;;;;;;;;;17.59;72.47;101049.97;1297698;22;648;-75
2022/10/26 00:46:26;;;;;;;;;;;;;;;17.60;71.93;101052.53;1297474;22;616;-75
2022/10/26 00:47:17;;;;;;;;;;;;;;;17.59;72.01;101042.72;1297526;22;707;-75
2022/10/26 00:48:07;;;;;;;;;;;;;;;17.60;71.86;101052.53;1297408;22;659;-75
2022/10/26 00:48:57;;;;;;;;;;;;;;;17.60;71.82;101051.69;1297702;22;683;-75
2022/10/26 00:49:48;;;;;;;;;;;;;;;17.60;71.60;101047.13;1297626;22;635;-75
2022/10/26 00:50:38;;;;;;;;;;;;;;;17.59;72.54;101050.81;1297402;22;668;-75
2022/10/26 00:51:31;;;;;;;;;;;;;;;17.58;72.20;101053.66;1297640;22;664;-75
2022/10/26 00:52:22;;;;;;;;;;;;;;;17.59;72.03;101053.50;1296473;22;691;-75
2022/10/26 00:53:12;;;;;;;;;;;;;;;17.59;71.55;101050.81;1296087;22;710;-76
2022/10/26 00:54:02;;;;;;;;;;;;;;;17.59;72.12;101050.81;1296708;22;615;-76
2022/10/26 00:54:53;;;;;;;;;;;;;;;17.57;72.14;101052.81;1297263;22;1952;-75
2022/10/26 00:55:43;;;;;;;;;;;;;;;17.57;71.82;101047.41;1297476;22;640;-76
2022/10/26 00:56:34;;;;;;;;;;;;;;;17.57;72.60;101052.81;1297743;22;636;-76
2022/10/26 00:57:24;;;;;;;;;;;;;;;17.57;72.28;101047.41;1297448;22;620;-75
2022/10/26 00:58:15;;;;;;;;;;;;;;;17.58;72.57;101046.41;1297491;22;680;-75
2022/10/26 00:59:05;;;;;;;;;;;;;;;17.60;71.96;101041.75;1297353;22;621;-75
2022/10/26 00:59:55;;;;;;;;;;;;;;;17.60;71.89;101048.97;1297553;22;600;-76
2022/10/26 01:00:47;;;;;;;;;;;;;;;17.57;72.09;101038.47;1297556;22;636;-75
2022/10/26 01:01:37;;;;;;;;;;;;;;;17.58;72.72;101037.47;1296335;22;585;-75
2022/10/26 01:02:27;;;;;;;;;;;;;;;17.57;72.74;101044.72;1297534;22;667;-75
2022/10/26 01:03:18;;;;;;;;;;;;;;;17.58;72.57;101042.88;1297416;22;620;-75
2022/10/26 01:04:08;;;;;;;;;;;;;;;17.57;71.90;101035.78;1297531;22;613;-76
2022/10/26 01:04:59;;;;;;;;;;;;;;;17.58;71.71;101041.03;1297427;22;652;-75
2022/10/26 01:05:49;;;;;;;;;;;;;;;17.57;71.91;101039.31;1297325;22;605;-75
2022/10/26 01:06:40;;;;;;;;;;;;;;;17.56;71.97;101040.31;1297419;22;651;-75
2022/10/26 01:07:30;;;;;;;;;;;;;;;17.57;72.37;101042.03;1297350;22;730;-75
2022/10/26 01:08:20;;;;;;;;;;;;;;;17.57;72.42;101033.94;1297551;22;584;-75
2022/10/26 01:09:11;;;;;;;;;;;;;;;17.56;71.87;101034.06;1297548;22;640;-75
2022/10/26 01:10:01;;;;;;;;;;;;;;;17.58;71.34;101026.69;1297301;22;620;-75
2022/10/26 01:10:52;;;;;;;;;;;;;;;17.55;71.94;101032.41;1297413;22;620;-75
2022/10/26 01:11:42;;;;;;;;;;;;;;;17.55;72.41;101027.88;1297430;22;644;-75
2022/10/26 01:12:33;;;;;;;;;;;;;;;17.56;71.93;101029.53;1297604;22;675;-74
2022/10/26 01:13:23;;;;;;;;;;;;;;;17.54;72.06;101030.69;1297475;22;616;-75
2022/10/26 01:14:13;;;;;;;;;;;;;;;17.53;72.20;101035.22;1297543;22;617;-75
2022/10/26 01:15:04;;;;;;;;;;;;;;;17.53;71.79;101027.16;1297526;22;1932;-74
2022/10/26 01:15:54;;;;;;;;;;;;;;;17.53;71.61;101024.44;1298355;22;628;-74
2022/10/26 01:16:45;;;;;;;;;;;;;;;17.53;71.30;101029.84;1297554;22;629;-75
2022/10/26 01:17:35;;;;;;;;;;;;;;;17.52;72.29;101022.75;1297432;22;668;-74
2022/10/26 01:18:26;;;;;;;;;;;;;;;17.53;71.93;101018.22;1297567;22;703;-74
2022/10/26 01:19:16;;;;;;;;;;;;;;;17.54;71.63;101025.31;1297549;22;645;-74
2022/10/26 01:20:06;;;;;;;;;;;;;;;17.53;71.72;101024.44;1297458;22;620;-75
2022/10/26 01:20:57;;;;;;;;;;;;;;;17.52;71.75;101028.13;1297607;22;1129;-74
2022/10/26 01:21:47;;;;;;;;;;;;;;;17.52;71.63;101020.06;1297401;22;632;-74
2022/10/26 01:22:38;;;;;;;;;;;;;;;17.54;72.17;101022.59;1297406;22;660;-75
2022/10/26 01:23:28;;;;;;;;;;;;;;;17.53;71.61;101021.75;1297387;22;651;-75
2022/10/26 01:24:19;;;;;;;;;;;;;;;17.53;72.25;101023.59;1297394;22;679;-74
2022/10/26 01:25:09;;;;;;;;;;;;;;;17.51;71.82;101021.03;1298350;22;788;-74
2022/10/26 01:25:59;;;;;;;;;;;;;;;17.50;71.31;101019.34;1297359;22;648;-74
2022/10/26 01:26:50;;;;;;;;;;;;;;;17.51;71.50;101014.81;1297486;22;596;-75
2022/10/26 01:27:41;;;;;;;;;;;;;;;17.50;71.76;101015.78;1296906;22;691;-74
2022/10/26 01:28:31;;;;;;;;;;;;;;;17.51;72.17;101012.09;1297137;22;727;-74
2022/10/26 01:29:21;;;;;;;;;;;;;;;17.51;71.86;101015.66;1297425;22;630;-74
2022/10/26 01:30:12;;;;;;;;;;;;;;;17.51;71.79;101007.56;1297555;22;915;-75
2022/10/26 01:31:02;;;;;;;;;;;;;;;17.51;71.36;101007.56;1297405;22;608;-74
2022/10/26 01:31:53;;;;;;;;;;;;;;;17.51;71.84;101010.25;1297518;22;561;-75
2022/10/26 01:32:43;;;;;;;;;;;;;;;17.50;71.42;101013.09;1297279;22;652;-75
2022/10/26 01:33:34;;;;;;;;;;;;;;;17.50;72.18;101013.94;1297567;22;632;-75
2022/10/26 01:34:24;;;;;;;;;;;;;;;17.50;72.40;101008.56;1297607;22;668;-74
2022/10/26 01:35:14;;;;;;;;;;;;;;;17.51;72.12;101010.25;1297340;22;1892;-74
2022/10/26 01:36:05;;;;;;;;;;;;;;;17.49;71.86;101012.25;1297462;22;633;-73
2022/10/26 01:36:55;;;;;;;;;;;;;;;17.48;72.50;101005.16;1297311;22;629;-74
2022/10/26 01:37:46;;;;;;;;;;;;;;;17.48;71.25;101012.38;1297376;22;632;-73
2022/10/26 01:38:36;;;;;;;;;;;;;;;17.49;71.77;101008.69;1297376;22;707;-74
2022/10/26 01:39:26;;;;;;;;;;;;;;;17.47;71.69;101007.97;1297526;22;686;-74
2022/10/26 01:40:17;;;;;;;;;;;;;;;17.48;71.71;101010.53;1297559;22;620;-74
2022/10/26 01:41:07;;;;;;;;;;;;;;;17.48;71.35;101002.47;1297226;22;601;-74
2022/10/26 01:41:58;;;;;;;;;;;;;;;17.47;71.87;101007.97;1297033;22;600;-74
2022/10/26 01:42:48;;;;;;;;;;;;;;;17.47;72.27;101003.44;1297270;22;660;-75
2022/10/26 01:43:39;;;;;;;;;;;;;;;17.47;72.34;101006.13;1297432;22;631;-74
2022/10/26 01:44:29;;;;;;;;;;;;;;;17.47;71.91;101003.44;1297285;22;655;-74
2022/10/26 01:45:20;;;;;;;;;;;;;;;17.47;72.40;101005.28;1298231;22;667;-74
2022/10/26 01:46:10;;;;;;;;;;;;;;;17.47;72.09;100997.19;1297252;22;648;-75
2022/10/26 01:47:01;;;;;;;;;;;;;;;17.47;71.87;101000.75;1296623;22;648;-74
2022/10/26 01:47:51;;;;;;;;;;;;;;;17.48;71.50;100994.38;1297155;22;820;-74
2022/10/26 01:48:42;;;;;;;;;;;;;;;17.47;71.48;100998.06;1297351;22;648;-74
2022/10/26 01:49:32;;;;;;;;;;;;;;;17.48;72.14;100994.38;1297630;22;659;-74
2022/10/26 01:50:22;;;;;;;;;;;;;;;17.48;71.32;100991.69;1297426;22;626;-74
2022/10/26 01:51:13;;;;;;;;;;;;;;;17.45;71.81;100985.72;1297492;22;669;-74
2022/10/26 01:52:03;;;;;;;;;;;;;;;17.47;72.09;100986.44;1297312;22;664;-75
2022/10/26 01:52:54;;;;;;;;;;;;;;;17.47;72.11;100987.28;1297278;22;639;-74
2022/10/26 01:53:44;;;;;;;;;;;;;;;17.46;71.60;100993.66;1296913;22;645;-75
2022/10/26 01:54:35;;;;;;;;;;;;;;;17.47;71.05;100997.19;1296365;22;679;-74
2022/10/26 01:55:26;;;;;;;;;;;;;;;17.45;71.81;100989.25;1296634;22;676;-74
2022/10/26 01:56:18;;;;;;;;;;;;;;;17.45;71.69;100993.78;1296775;22;601;-74
2022/10/26 01:57:08;;;;;;;;;;;;;;;17.46;71.71;100984.72;1297270;22;659;-75
2022/10/26 01:57:59;;;;;;;;;;;;;;;17.46;72.02;100990.13;1297350;22;672;-74
2022/10/26 01:58:49;;;;;;;;;;;;;;;17.45;71.66;100983.00;1297320;22;617;-75
2022/10/26 01:59:39;;;;;;;;;;;;;;;17.45;71.90;100989.25;1297412;22;652;-75
2022/10/26 02:00:30;;;;;;;;;;;;;;;17.46;71.91;100984.72;1297499;22;645;-75
2022/10/26 02:01:20;;;;;;;;;;;;;;;17.43;71.25;100983.16;1297342;22;648;-75
2022/10/26 02:02:11;;;;;;;;;;;;;;;17.43;71.55;100988.53;1297453;22;687;-74
2022/10/26 02:03:03;;;;;;;;;;;;;;;17.43;71.80;100983.16;1297253;22;652;-74
2022/10/26 02:03:53;;;;;;;;;;;;;;;17.41;71.91;100985.13;1297368;22;613;-74
2022/10/26 02:04:44;;;;;;;;;;;;;;;17.42;71.47;100986.84;1297581;22;634;-74
2022/10/26 02:05:34;;;;;;;;;;;;;;;17.43;71.28;100979.59;1297215;22;663;-75
2022/10/26 02:06:24;;;;;;;;;;;;;;;17.41;72.08;100982.44;1297340;22;644;-75
2022/10/26 02:07:15;;;;;;;;;;;;;;;17.40;71.33;100969.97;1297449;22;632;-75
2022/10/26 02:08:05;;;;;;;;;;;;;;;17.43;72.06;100975.06;1297342;22;636;-74
2022/10/26 02:08:56;;;;;;;;;;;;;;;17.43;71.54;100977.78;1297536;22;640;-74
2022/10/26 02:09:46;;;;;;;;;;;;;;;17.41;72.05;100974.34;1297281;22;703;-75
2022/10/26 02:10:36;;;;;;;;;;;;;;;17.40;71.87;100963.72;1297420;22;636;-75
2022/10/26 02:11:27;;;;;;;;;;;;;;;17.43;71.53;100979.59;1297548;22;704;-75
2022/10/26 02:12:17;;;;;;;;;;;;;;;17.43;71.47;100974.22;1297232;22;624;-75
2022/10/26 02:13:08;;;;;;;;;;;;;;;17.44;71.10;100971.38;1297441;22;651;-74
2022/10/26 02:13:58;;;;;;;;;;;;;;;17.44;71.28;100974.09;1297220;22;617;-74
2022/10/26 02:14:49;;;;;;;;;;;;;;;17.42;71.83;100976.06;1297319;22;641;-74
2022/10/26 02:15:39;;;;;;;;;;;;;;;17.43;71.98;100968.84;1297308;22;652;-74
2022/10/26 02:16:29;;;;;;;;;;;;;;;17.43;71.69;100974.22;1297255;22;640;-74
2022/10/26 02:17:20;;;;;;;;;;;;;;;17.43;71.67;100972.38;1297698;22;609;-74
2022/10/26 02:18:10;;;;;;;;;;;;;;;17.43;70.96;100976.91;1297290;22;621;-74
2022/10/26 02:19:01;;;;;;;;;;;;;;;17.43;71.46;100972.38;1297502;22;683;-74
2022/10/26 02:19:51;;;;;;;;;;;;;;;17.42;71.83;100978.75;1297346;22;751;-74
2022/10/26 02:20:42;;;;;;;;;;;;;;;17.41;71.75;100976.19;1297421;22;637;-74
2022/10/26 02:21:32;;;;;;;;;;;;;;;17.41;71.78;100973.50;1297511;22;594;-74
2022/10/26 02:22:22;;;;;;;;;;;;;;;17.41;71.75;100976.19;1297303;22;628;-74
2022/10/26 02:23:13;;;;;;;;;;;;;;;17.39;71.65;100979.03;1297477;22;635;-75
2022/10/26 02:24:03;;;;;;;;;;;;;;;17.39;71.29;100968.25;1297302;22;613;-74
2022/10/26 02:24:54;;;;;;;;;;;;;;;17.38;71.37;100971.94;1297358;22;659;-75
2022/10/26 02:25:44;;;;;;;;;;;;;;;17.38;71.71;100977.31;1296435;22;628;-75
2022/10/26 02:26:34;;;;;;;;;;;;;;;17.39;71.55;100973.66;1296098;22;675;-77
2022/10/26 02:27:25;;;;;;;;;;;;;;;17.38;70.95;100971.94;1297151;22;633;-76
2022/10/26 02:28:15;;;;;;;;;;;;;;;17.40;71.54;100972.66;1297797;22;636;-76
2022/10/26 02:29:06;;;;;;;;;;;;;;;17.40;71.97;100969.97;1297775;22;664;-76
2022/10/26 02:29:56;;;;;;;;;;;;;;;17.38;71.84;100966.56;1297847;22;620;-76
2022/10/26 02:30:47;;;;;;;;;;;;;;;17.37;71.03;100970.28;1297809;22;651;-76
2022/10/26 02:31:37;;;;;;;;;;;;;;;17.38;72.01;100971.13;1297872;22;636;-75
2022/10/26 02:32:27;;;;;;;;;;;;;;;17.40;71.29;100969.09;1297642;22;612;-76
2022/10/26 02:33:18;;;;;;;;;;;;;;;17.39;71.15;100965.56;1297806;22;631;-76
2022/10/26 02:34:08;;;;;;;;;;;;;;;17.39;71.21;100962.00;1297716;22;597;-76
2022/10/26 02:34:59;;;;;;;;;;;;;;;17.39;71.41;100959.31;1297558;22;1937;-76
2022/10/26 02:35:49;;;;;;;;;;;;;;;17.38;70.95;100966.56;1297682;22;702;-75
2022/10/26 02:36:39;;;;;;;;;;;;;;;17.37;71.77;100959.50;1297739;22;652;-75
2022/10/26 02:37:30;;;;;;;;;;;;;;;17.39;71.43;100962.00;1297761;22;565;-75
2022/10/26 02:38:20;;;;;;;;;;;;;;;17.40;71.05;100958.34;1297752;22;666;-76
2022/10/26 02:39:11;;;;;;;;;;;;;;;17.39;71.38;100962.88;1297780;22;659;-76
2022/10/26 02:40:01;;;;;;;;;;;;;;;17.39;71.40;100960.19;1297143;22;623;-75
2022/10/26 02:40:52;;;;;;;;;;;;;;;17.37;71.26;100958.63;1297694;22;608;-76
2022/10/26 02:41:42;;;;;;;;;;;;;;;17.37;71.84;100956.81;1297815;22;624;-73
2022/10/26 02:42:32;;;;;;;;;;;;;;;17.38;70.93;100952.25;1297714;22;675;-76
2022/10/26 02:43:23;;;;;;;;;;;;;;;17.38;71.24;100949.56;1297839;22;687;-75
2022/10/26 02:44:13;;;;;;;;;;;;;;;17.36;71.87;100955.09;1297716;22;585;-74
2022/10/26 02:45:04;;;;;;;;;;;;;;;17.35;70.96;100956.94;1297783;22;690;-74
2022/10/26 02:45:54;;;;;;;;;;;;;;;17.37;71.75;100947.88;1297842;22;1016;-74
2022/10/26 02:46:44;;;;;;;;;;;;;;;17.33;71.51;100950.84;1297568;22;1109;-74
2022/10/26 02:47:35;;;;;;;;;;;;;;;17.34;71.50;100947.16;1297769;22;671;-75
2022/10/26 02:48:25;;;;;;;;;;;;;;;17.35;71.06;100948.84;1297743;22;629;-75
2022/10/26 02:49:16;;;;;;;;;;;;;;;17.34;71.57;100939.06;1297825;22;632;-75
2022/10/26 02:50:06;;;;;;;;;;;;;;;17.34;71.24;100949.84;1297523;22;743;-74
2022/10/26 02:50:57;;;;;;;;;;;;;;;17.35;71.03;100940.78;1297729;22;804;-75
2022/10/26 02:51:47;;;;;;;;;;;;;;;17.34;71.63;100952.53;1297921;22;609;-74
2022/10/26 02:52:38;;;;;;;;;;;;;;;17.32;71.59;100949.13;1297753;22;607;-74
2022/10/26 02:53:28;;;;;;;;;;;;;;;17.35;71.17;100945.31;1297759;22;679;-74
2022/10/26 02:54:18;;;;;;;;;;;;;;;17.34;71.62;100954.38;1297153;22;617;-74
2022/10/26 02:55:09;;;;;;;;;;;;;;;17.34;71.33;100944.47;1297625;22;1905;-74
2022/10/26 02:55:59;;;;;;;;;;;;;;;17.35;71.32;100939.91;1297686;22;628;-75
2022/10/26 02:56:50;;;;;;;;;;;;;;;17.34;71.74;100947.16;1297890;22;632;-75
2022/10/26 02:57:40;;;;;;;;;;;;;;;17.35;71.18;100946.16;1297770;22;679;-75
2022/10/26 02:58:30;;;;;;;;;;;;;;;17.36;71.58;100941.63;1297764;22;612;-75
2022/10/26 02:59:21;;;;;;;;;;;;;;;17.35;71.09;100946.16;1297830;22;632;-75
2022/10/26 03:00:11;;;;;;;;;;;;;;;17.34;71.67;100943.59;1297676;22;612;-75
2022/10/26 03:01:02;;;;;;;;;;;;;;;17.33;71.18;100939.22;1297734;22;628;-76
2022/10/26 03:01:52;;;;;;;;;;;;;;;17.32;71.48;100940.19;1297480;22;620;-75
2022/10/26 03:02:43;;;;;;;;;;;;;;;17.33;71.92;100936.50;1297064;22;621;-75
2022/10/26 03:03:33;;;;;;;;;;;;;;;17.33;71.18;100937.38;1297421;22;705;-75
2022/10/26 03:04:23;;;;;;;;;;;;;;;17.33;70.77;100926.59;1297690;22;664;-75
2022/10/26 03:05:14;;;;;;;;;;;;;;;17.34;71.42;100943.59;1297919;22;655;-74
2022/10/26 03:06:04;;;;;;;;;;;;;;;17.35;71.27;100940.78;1297581;22;660;-75
2022/10/26 03:06:55;;;;;;;;;;;;;;;17.35;71.16;100942.63;1297712;22;644;-74
2022/10/26 03:07:45;;;;;;;;;;;;;;;17.33;71.55;100937.38;1297871;22;714;-75
2022/10/26 03:08:35;;;;;;;;;;;;;;;17.33;71.34;100936.50;1297686;22;648;-74
2022/10/26 03:09:26;;;;;;;;;;;;;;;17.32;71.46;100946.44;1297911;22;669;-74
2022/10/26 03:10:16;;;;;;;;;;;;;;;17.34;71.47;100939.06;1297568;22;616;-74
2022/10/26 03:11:07;;;;;;;;;;;;;;;17.34;71.18;100938.22;1297712;22;624;-74
2022/10/26 03:11:57;;;;;;;;;;;;;;;17.33;71.38;100945.44;1297865;22;632;-74
2022/10/26 03:12:47;;;;;;;;;;;;;;;17.32;71.20;100934.81;1297411;22;640;-74
2022/10/26 03:13:38;;;;;;;;;;;;;;;17.33;70.94;100936.50;1297756;22;640;-75
2022/10/26 03:14:28;;;;;;;;;;;;;;;17.33;71.72;100925.75;1297584;22;628;-74
2022/10/26 03:15:19;;;;;;;;;;;;;;;17.32;71.32;100929.41;1297560;22;1924;-74
2022/10/26 03:16:09;;;;;;;;;;;;;;;17.33;71.28;100931.13;1297356;22;635;-74
2022/10/26 03:17:00;;;;;;;;;;;;;;;17.33;71.82;100926.59;1297635;22;704;-74
2022/10/26 03:17:50;;;;;;;;;;;;;;;17.33;71.29;100925.75;1297620;22;633;-73
2022/10/26 03:18:40;;;;;;;;;;;;;;;17.33;71.00;100931.13;1297604;22;609;-74
2022/10/26 03:19:31;;;;;;;;;;;;;;;17.33;71.13;100931.13;1297561;22;699;-74
2022/10/26 03:20:21;;;;;;;;;;;;;;;17.31;71.32;100927.72;1297492;22;608;-74
2022/10/26 03:21:12;;;;;;;;;;;;;;;17.29;71.32;100925.16;1297620;22;614;-75
2022/10/26 03:22:02;;;;;;;;;;;;;;;17.31;71.79;100923.19;1297792;22;660;-75
2022/10/26 03:22:53;;;;;;;;;;;;;;;17.32;70.66;100932.97;1297559;22;572;-74
2022/10/26 03:23:45;;;;;;;;;;;;;;;17.31;70.85;100925.88;1297217;22;687;-75
2022/10/26 03:24:35;;;;;;;;;;;;;;;17.30;71.51;100931.41;1297503;22;632;-75
2022/10/26 03:25:26;;;;;;;;;;;;;;;17.31;71.17;100928.56;1297642;22;613;-75
2022/10/26 03:26:16;;;;;;;;;;;;;;;17.32;71.74;100926.72;1297685;22;632;-75
2022/10/26 03:27:06;;;;;;;;;;;;;;;17.31;71.75;100931.25;1297570;22;735;-75
2022/10/26 03:27:57;;;;;;;;;;;;;;;17.32;71.20;100932.13;1297731;22;613;-75
2022/10/26 03:28:47;;;;;;;;;;;;;;;17.31;71.37;100933.09;1297589;22;613;-74
2022/10/26 03:29:38;;;;;;;;;;;;;;;17.31;71.16;100933.09;1297630;22;638;-75
2022/10/26 03:30:28;;;;;;;;;;;;;;;17.32;71.45;100929.41;1297645;22;621;-75
2022/10/26 03:31:19;;;;;;;;;;;;;;;17.31;70.95;100933.09;1297533;22;644;-75
2022/10/26 03:32:09;;;;;;;;;;;;;;;17.32;71.31;100932.13;1297797;22;609;-74
2022/10/26 03:32:59;;;;;;;;;;;;;;;17.31;71.54;100931.25;1297544;22;628;-74
2022/10/26 03:33:50;;;;;;;;;;;;;;;17.29;71.31;100938.63;1297669;22;647;-74
2022/10/26 03:34:40;;;;;;;;;;;;;;;17.29;71.39;100935.94;1297472;22;636;-75
2022/10/26 03:35:31;;;;;;;;;;;;;;;17.29;71.48;100929.69;1297711;22;707;-74
2022/10/26 03:36:21;;;;;;;;;;;;;;;17.30;70.87;100932.25;1297686;22;604;-75
2022/10/26 03:37:12;;;;;;;;;;;;;;;17.31;70.79;100942.03;1297222;22;628;-74
2022/10/26 03:38:02;;;;;;;;;;;;;;;17.31;71.73;100933.97;1295809;22;636;-74
2022/10/26 03:38:52;;;;;;;;;;;;;;;17.31;70.86;100925.03;1296556;22;615;-74
2022/10/26 03:39:43;;;;;;;;;;;;;;;17.31;71.36;100933.97;1297598;22;691;-75
2022/10/26 03:40:34;;;;;;;;;;;;;;;17.31;71.50;100922.34;1297077;22;702;-74
2022/10/26 03:41:25;;;;;;;;;;;;;;;17.31;71.00;100925.88;1296459;22;695;-74
2022/10/26 03:42:15;;;;;;;;;;;;;;;17.32;71.44;100921.34;1296634;22;632;-74
2022/10/26 03:43:06;;;;;;;;;;;;;;;17.30;70.67;100918.78;1297654;22;667;-74
2022/10/26 03:43:56;;;;;;;;;;;;;;;17.30;70.86;100916.09;1297652;22;601;-74
2022/10/26 03:44:47;;;;;;;;;;;;;;;17.29;71.22;100918.94;1298605;22;624;-75
2022/10/26 03:45:37;;;;;;;;;;;;;;;17.28;71.17;100922.59;1297530;22;640;-75
2022/10/26 03:46:28;;;;;;;;;;;;;;;17.29;71.32;100921.63;1297319;22;629;-75
2022/10/26 03:47:18;;;;;;;;;;;;;;;17.27;71.35;100916.38;1297682;22;634;-75
2022/10/26 03:48:08;;;;;;;;;;;;;;;17.26;71.64;100911.97;1297552;22;597;-75
2022/10/26 03:48:59;;;;;;;;;;;;;;;17.26;71.59;100917.34;1297720;22;664;-75
2022/10/26 03:49:49;;;;;;;;;;;;;;;17.27;71.55;100920.91;1297551;22;643;-75
2022/10/26 03:50:40;;;;;;;;;;;;;;;17.27;71.42;100912.81;1297686;22;680;-75
2022/10/26 03:51:30;;;;;;;;;;;;;;;17.28;71.27;100918.06;1297953;22;604;-75
2022/10/26 03:52:23;;;;;;;;;;;;;;;17.28;70.73;100912.69;1296980;22;609;-75
2022/10/26 03:53:13;;;;;;;;;;;;;;;17.28;71.02;100918.06;1297703;22;652;-75
2022/10/26 03:54:03;;;;;;;;;;;;;;;17.29;71.47;100918.94;1297494;22;593;-75
2022/10/26 03:54:54;;;;;;;;;;;;;;;17.27;70.84;100918.22;1297671;22;613;-76
2022/10/26 03:55:44;;;;;;;;;;;;;;;17.30;71.34;100915.25;1297850;22;632;-76
2022/10/26 03:56:35;;;;;;;;;;;;;;;17.29;70.67;100917.09;1297598;22;664;-76
2022/10/26 03:57:25;;;;;;;;;;;;;;;17.29;71.27;100918.94;1297644;22;668;-75
2022/10/26 03:58:15;;;;;;;;;;;;;;;17.27;71.37;100921.75;1297564;22;671;-76
2022/10/26 03:59:06;;;;;;;;;;;;;;;17.28;71.50;100914.53;1297610;22;699;-76
2022/10/26 03:59:56;;;;;;;;;;;;;;;17.28;70.81;100919.91;1297573;22;679;-76
2022/10/26 04:00:47;;;;;;;;;;;;;;;17.28;71.13;100914.53;1297626;22;593;-75
2022/10/26 04:01:38;;;;;;;;;;;;;;;17.27;71.21;100921.75;1297799;22;628;-76
2022/10/26 04:02:29;;;;;;;;;;;;;;;17.26;71.21;100917.34;1297498;22;651;-76
2022/10/26 04:03:19;;;;;;;;;;;;;;;17.25;71.07;100921.03;1297551;22;633;-76
2022/10/26 04:04:10;;;;;;;;;;;;;;;17.27;70.89;100918.22;1297148;22;649;-75
2022/10/26 04:05:00;;;;;;;;;;;;;;;17.24;71.63;100921.19;1296580;22;718;-75
2022/10/26 04:05:50;;;;;;;;;;;;;;;17.25;71.23;100922.88;1296503;22;676;-75
2022/10/26 04:06:41;;;;;;;;;;;;;;;17.25;71.42;100914.81;1297549;22;683;-75
2022/10/26 04:07:31;;;;;;;;;;;;;;;17.25;71.40;100912.09;1297517;22;640;-75
2022/10/26 04:08:22;;;;;;;;;;;;;;;17.26;71.77;100916.50;1297554;22;636;-75
2022/10/26 04:09:12;;;;;;;;;;;;;;;17.26;71.14;100919.19;1297490;22;593;-75
2022/10/26 04:10:03;;;;;;;;;;;;;;;17.25;71.21;100912.09;1297473;22;763;-75
2022/10/26 04:10:53;;;;;;;;;;;;;;;17.25;71.29;100912.97;1297647;22;636;-75
2022/10/26 04:11:43;;;;;;;;;;;;;;;17.25;71.69;100915.66;1297517;22;1200;-75
2022/10/26 04:12:34;;;;;;;;;;;;;;;17.26;71.31;100913.81;1297548;22;617;-75
2022/10/26 04:13:24;;;;;;;;;;;;;;;17.25;71.41;100917.50;1297437;22;632;-75
2022/10/26 04:14:15;;;;;;;;;;;;;;;17.24;70.95;100911.25;1297549;22;677;-75
2022/10/26 04:15:05;;;;;;;;;;;;;;;17.23;71.74;100922.16;1297501;22;1904;-75
2022/10/26 04:15:56;;;;;;;;;;;;;;;17.23;71.44;100914.94;1297661;22;568;-75
2022/10/26 04:16:46;;;;;;;;;;;;;;;17.23;71.47;100909.56;1297485;22;667;-75
2022/10/26 04:17:37;;;;;;;;;;;;;;;17.23;70.87;100916.78;1297598;22;608;-75
2022/10/26 04:18:27;;;;;;;;;;;;;;;17.22;71.23;100918.63;1297581;22;612;-75
2022/10/26 04:19:18;;;;;;;;;;;;;;;17.23;71.38;100908.69;1297514;22;652;-75
2022/10/26 04:20:08;;;;;;;;;;;;;;;17.21;71.60;100910.69;1297709;22;613;-75
2022/10/26 04:20:58;;;;;;;;;;;;;;;17.22;71.98;100912.38;1297440;22;868;-75
2022/10/26 04:21:49;;;;;;;;;;;;;;;17.23;71.80;100914.09;1297534;22;626;-75
2022/10/26 04:22:39;;;;;;;;;;;;;;;17.24;70.76;100910.41;1297682;22;628;-75
2022/10/26 04:23:30;;;;;;;;;;;;;;;17.24;71.06;100913.94;1297583;22;632;-75
2022/10/26 04:24:20;;;;;;;;;;;;;;;17.23;71.37;100914.09;1297612;22;703;-76
2022/10/26 04:25:12;;;;;;;;;;;;;;;17.22;71.12;100910.53;1297518;22;656;-76
2022/10/26 04:26:02;;;;;;;;;;;;;;;17.24;71.34;100903.19;1296533;22;628;-76